Time;durP1;ratioP1;P1;durP2;ratioP2;P2;SDS_P1;SDS_P2;PMS_P1;PMS_P2;Temp;Humidity;BMP_temperature;BMP_pressure;BME280_temperature;BME280_humidity;BME280_pressure;Samples;Min_cycle;Max_cycle;Signal;HPM_P1;HPM_P2
2024/01/10 00:00:12;;;;;;;21.20;9.30;;;-5.80;99.90;;;;;;4992290;28;20191;-71
2024/01/10 00:02:38;;;;;;;21.83;10.17;;;-5.90;99.90;;;;;;5003395;28;20186;-72
2024/01/10 00:05:04;;;;;;;23.67;10.27;;;-5.80;99.90;;;;;;5002845;28;20183;-71
2024/01/10 00:07:29;;;;;;;29.97;9.07;;;-5.90;99.90;;;;;;4996396;28;20184;-71
2024/01/10 00:09:55;;;;;;;21.07;10.27;;;-5.90;99.90;;;;;;4995173;28;20513;-71
2024/01/10 00:12:21;;;;;;;27.80;10.17;;;-5.80;99.90;;;;;;5000725;28;20187;-71
2024/01/10 00:14:46;;;;;;;31.83;10.63;;;-5.90;99.90;;;;;;5000336;28;20422;-70
2024/01/10 00:17:12;;;;;;;27.20;9.50;;;-5.90;99.90;;;;;;5010716;28;20661;-69
2024/01/10 00:19:37;;;;;;;24.60;9.40;;;-5.90;99.90;;;;;;4998571;28;20210;-71
2024/01/10 00:22:03;;;;;;;23.30;9.10;;;-5.90;99.90;;;;;;4995945;28;20192;-71
2024/01/10 00:24:29;;;;;;;22.10;9.40;;;-5.90;99.90;;;;;;5004296;28;20203;-70
2024/01/10 00:26:55;;;;;;;17.13;7.50;;;-5.90;99.90;;;;;;4997867;28;20223;-70
2024/01/10 00:29:20;;;;;;;16.17;6.90;;;-5.90;99.90;;;;;;4996348;28;20299;-71
2024/01/10 00:31:46;;;;;;;19.03;8.10;;;-5.90;99.90;;;;;;4998197;28;20875;-71
2024/01/10 00:34:12;;;;;;;12.40;6.67;;;-5.80;99.90;;;;;;5002037;28;20684;-72
2024/01/10 00:36:37;;;;;;;18.20;7.77;;;-5.90;99.90;;;;;;5006683;28;20193;-72
2024/01/10 00:39:03;;;;;;;18.53;8.43;;;-5.60;99.90;;;;;;4998527;28;20601;-71
2024/01/10 00:41:29;;;;;;;14.80;6.60;;;-5.70;99.90;;;;;;5005387;28;20192;-72
2024/01/10 00:43:54;;;;;;;23.50;6.30;;;-5.50;99.90;;;;;;5005682;28;20442;-71
2024/01/10 00:46:20;;;;;;;18.87;7.17;;;-5.60;99.90;;;;;;4996019;28;20617;-71
2024/01/10 00:48:46;;;;;;;18.13;8.33;;;-5.70;99.90;;;;;;4998572;28;20204;-71
2024/01/10 00:51:11;;;;;;;20.00;7.30;;;-5.70;99.90;;;;;;4990250;28;20423;-71
2024/01/10 00:53:38;;;;;;;16.60;7.57;;;-5.60;99.90;;;;;;5001686;28;20267;-71
2024/01/10 00:56:05;;;;;;;22.47;8.13;;;-5.60;99.90;;;;;;4987723;28;20725;-71
2024/01/10 00:58:30;;;;;;;16.40;6.93;;;-5.60;99.90;;;;;;5010487;28;20875;-71
2024/01/10 01:00:56;;;;;;;24.47;8.77;;;-5.60;99.90;;;;;;5000276;28;20441;-71
2024/01/10 01:03:21;;;;;;;17.80;8.67;;;-5.50;99.90;;;;;;5013349;28;20223;-71
2024/01/10 01:05:47;;;;;;;22.00;8.47;;;-5.40;99.90;;;;;;5013797;28;20179;-71
2024/01/10 01:08:12;;;;;;;20.93;8.03;;;-5.50;99.90;;;;;;5012865;28;20214;-71
2024/01/10 01:10:37;;;;;;;15.50;7.10;;;-5.50;99.90;;;;;;5007781;28;20188;-70
2024/01/10 01:13:03;;;;;;;31.63;8.80;;;-5.50;99.90;;;;;;5001332;28;20186;-69
2024/01/10 01:15:29;;;;;;;25.00;7.60;;;-5.60;99.90;;;;;;4999780;28;20183;-70
2024/01/10 01:17:54;;;;;;;21.07;7.00;;;-5.50;99.90;;;;;;5013167;28;20198;-70
2024/01/10 01:20:19;;;;;;;20.23;8.00;;;-5.50;99.90;;;;;;4993058;28;21192;-71
2024/01/10 01:22:45;;;;;;;21.60;7.40;;;-5.50;99.90;;;;;;4998670;28;20191;-71
2024/01/10 01:25:10;;;;;;;22.60;8.83;;;-5.40;99.90;;;;;;5010655;28;20584;-71
2024/01/10 01:27:36;;;;;;;18.67;8.17;;;-5.30;99.90;;;;;;4997363;28;20219;-71
2024/01/10 01:30:02;;;;;;;18.70;7.83;;;-5.20;99.90;;;;;;4997425;28;20299;-71
2024/01/10 01:32:28;;;;;;;23.17;9.17;;;-5.20;99.90;;;;;;4993497;28;20286;-71
2024/01/10 01:34:53;;;;;;;20.23;8.70;;;-5.10;99.90;;;;;;5004774;28;20226;-71
2024/01/10 01:37:19;;;;;;;20.57;7.80;;;-5.00;99.90;;;;;;4993230;28;20454;-71
2024/01/10 01:39:44;;;;;;;19.87;8.03;;;-5.10;99.90;;;;;;5003930;28;20195;-71
2024/01/10 01:42:09;;;;;;;28.87;9.30;;;-5.00;99.90;;;;;;5002120;28;20197;-71
2024/01/10 01:44:35;;;;;;;19.00;7.00;;;-4.90;99.90;;;;;;4997461;28;20192;-71
2024/01/10 01:47:01;;;;;;;22.63;8.93;;;-4.90;99.90;;;;;;4993457;28;20175;-71
2024/01/10 01:49:28;;;;;;;19.63;8.60;;;-4.90;99.90;;;;;;4992597;28;20251;-71
2024/01/10 01:51:54;;;;;;;26.97;8.70;;;-4.90;99.90;;;;;;4999289;28;20767;-71
2024/01/10 01:54:20;;;;;;;32.97;7.97;;;-4.90;99.90;;;;;;4996368;28;20435;-71
2024/01/10 01:56:46;;;;;;;17.97;8.47;;;-4.90;99.90;;;;;;5001861;28;20187;-71
2024/01/10 01:59:12;;;;;;;18.83;8.30;;;-4.80;99.90;;;;;;5008734;28;20429;-71
2024/01/10 02:01:39;;;;;;;21.47;7.83;;;-4.70;99.50;;;;;;5004251;28;20184;-71
2024/01/10 02:04:04;;;;;;;24.87;9.50;;;-4.70;99.60;;;;;;4997995;28;20418;-71
2024/01/10 02:06:30;;;;;;;25.07;8.40;;;-4.70;98.90;;;;;;4996055;28;20426;-72
2024/01/10 02:08:56;;;;;;;21.70;8.60;;;-4.80;98.90;;;;;;5009919;28;20293;-71
2024/01/10 02:11:23;;;;;;;19.40;7.40;;;-4.80;98.60;;;;;;4992943;28;20191;-71
2024/01/10 02:13:49;;;;;;;20.10;7.83;;;-4.90;98.80;;;;;;5002304;28;20425;-71
2024/01/10 02:16:15;;;;;;;18.90;7.40;;;-4.80;99.00;;;;;;4996005;28;20438;-71
2024/01/10 02:18:40;;;;;;;19.50;7.10;;;-4.70;98.90;;;;;;5004732;28;20670;-71
2024/01/10 02:21:06;;;;;;;21.70;7.43;;;-4.70;98.90;;;;;;5004695;28;20262;-71
2024/01/10 02:23:31;;;;;;;25.70;7.80;;;-4.70;98.80;;;;;;4987928;28;20794;-71
2024/01/10 02:25:57;;;;;;;25.00;9.77;;;-4.60;98.70;;;;;;4982861;28;20190;-72
2024/01/10 02:28:25;;;;;;;21.23;8.90;;;-4.60;98.60;;;;;;4993157;28;20210;-71
2024/01/10 02:30:52;;;;;;;20.17;7.33;;;-4.60;98.30;;;;;;4994998;28;20183;-69
2024/01/10 02:33:18;;;;;;;24.10;7.60;;;-4.60;98.30;;;;;;4997843;28;20423;-69
2024/01/10 02:35:43;;;;;;;25.83;8.50;;;-4.60;98.10;;;;;;5003852;28;20425;-71
2024/01/10 02:38:09;;;;;;;21.50;8.13;;;-4.60;97.70;;;;;;4989955;28;20260;-71
2024/01/10 02:40:34;;;;;;;15.27;6.47;;;-4.60;97.90;;;;;;5003644;28;20512;-72
2024/01/10 02:43:00;;;;;;;24.93;8.00;;;-4.60;98.00;;;;;;4997290;28;20195;-71
2024/01/10 02:45:25;;;;;;;23.00;8.07;;;-4.50;98.00;;;;;;4992169;28;20203;-71
2024/01/10 02:47:51;;;;;;;18.90;7.83;;;-4.50;97.80;;;;;;5003808;28;20202;-71
2024/01/10 02:50:16;;;;;;;19.10;6.97;;;-4.50;97.80;;;;;;5000376;28;20202;-71
2024/01/10 02:52:42;;;;;;;16.57;6.80;;;-4.50;97.90;;;;;;4997301;28;20184;-71
2024/01/10 02:55:07;;;;;;;17.67;7.20;;;-4.80;98.10;;;;;;4991619;28;20275;-71
2024/01/10 02:57:33;;;;;;;19.60;7.50;;;-4.50;97.60;;;;;;5004375;28;20184;-70
2024/01/10 02:59:59;;;;;;;17.23;7.17;;;-4.50;97.40;;;;;;5012150;28;20262;-71
2024/01/10 03:02:24;;;;;;;22.30;7.67;;;-4.50;97.40;;;;;;4992483;28;20237;-72
2024/01/10 03:04:50;;;;;;;20.60;7.00;;;-4.50;97.50;;;;;;4998649;28;20746;-69
2024/01/10 03:07:15;;;;;;;21.50;7.20;;;-4.50;97.70;;;;;;5000812;28;20674;-69
2024/01/10 03:09:41;;;;;;;20.33;7.17;;;-4.50;97.40;;;;;;5000340;28;20586;-72
2024/01/10 03:12:06;;;;;;;23.67;8.30;;;-4.50;97.80;;;;;;5015505;28;20198;-72
2024/01/10 03:14:33;;;;;;;23.43;6.83;;;-4.50;97.80;;;;;;5007658;28;20195;-72
2024/01/10 03:16:58;;;;;;;17.47;7.30;;;-4.50;97.60;;;;;;5002739;28;20190;-72
2024/01/10 03:19:24;;;;;;;15.30;6.87;;;-4.50;97.80;;;;;;5013500;28;20438;-69
2024/01/10 03:21:49;;;;;;;17.13;6.63;;;-4.50;97.60;;;;;;4986109;28;20547;-69
2024/01/10 03:24:15;;;;;;;19.13;7.50;;;-4.60;97.20;;;;;;4994669;28;20183;-69
2024/01/10 03:26:40;;;;;;;19.20;7.43;;;-4.60;97.50;;;;;;5004680;28;20557;-69
2024/01/10 03:29:06;;;;;;;17.23;7.67;;;-4.60;97.70;;;;;;5007341;28;20211;-72
2024/01/10 03:31:31;;;;;;;19.33;7.60;;;-4.60;97.80;;;;;;5005650;28;20183;-71
2024/01/10 03:33:58;;;;;;;19.20;8.10;;;-4.50;97.90;;;;;;4995213;28;20694;-71
2024/01/10 03:36:24;;;;;;;18.77;8.00;;;-4.60;98.00;;;;;;4997545;28;20180;-69
2024/01/10 03:38:50;;;;;;;19.83;8.47;;;-4.60;98.30;;;;;;5007262;28;20544;-70
2024/01/10 03:41:16;;;;;;;14.37;6.60;;;-4.70;98.20;;;;;;4996346;28;20450;-72
2024/01/10 03:43:43;;;;;;;20.93;7.60;;;-4.70;98.20;;;;;;5009880;28;20215;-72
2024/01/10 03:46:12;;;;;;;19.17;7.13;;;-4.70;98.40;;;;;;4989977;28;20434;-70
2024/01/10 03:48:42;;;;;;;23.80;7.97;;;-4.70;98.50;;;;;;5005986;28;21333;-70
2024/01/10 03:51:08;;;;;;;17.33;7.60;;;-4.80;98.50;;;;;;4995512;28;20458;-71
2024/01/10 03:53:34;;;;;;;23.53;7.60;;;-4.80;98.70;;;;;;5002067;28;20508;-71
2024/01/10 03:56:03;;;;;;;21.67;8.10;;;-4.80;98.40;;;;;;4994420;28;20507;-71
2024/01/10 03:58:28;;;;;;;15.37;6.73;;;-4.80;98.80;;;;;;5002995;28;20219;-72
2024/01/10 04:00:54;;;;;;;19.43;6.93;;;-4.70;98.80;;;;;;5014650;28;20531;-71
2024/01/10 04:03:19;;;;;;;18.60;7.10;;;-4.80;98.70;;;;;;4997102;28;20185;-71
2024/01/10 04:05:45;;;;;;;19.37;9.20;;;-4.90;98.60;;;;;;4995088;28;20704;-71
2024/01/10 04:08:10;;;;;;;19.00;8.10;;;-4.80;99.10;;;;;;5002686;28;20215;-71
2024/01/10 04:10:36;;;;;;;22.47;8.07;;;-4.80;98.90;;;;;;4995102;28;20198;-71
2024/01/10 04:13:01;;;;;;;15.57;7.50;;;-4.70;99.10;;;;;;5009998;28;20175;-71
2024/01/10 04:15:27;;;;;;;21.23;8.70;;;-4.80;98.60;;;;;;4999068;28;20275;-69
2024/01/10 04:17:53;;;;;;;18.53;7.40;;;-4.70;98.60;;;;;;5000204;28;20985;-70
2024/01/10 04:20:18;;;;;;;18.30;7.90;;;-4.70;98.40;;;;;;4999706;28;20659;-71
2024/01/10 04:22:44;;;;;;;20.93;8.30;;;-4.60;98.70;;;;;;5006180;28;20188;-71
2024/01/10 04:25:11;;;;;;;25.33;8.50;;;-4.60;98.50;;;;;;4994913;28;20216;-71
2024/01/10 04:27:36;;;;;;;20.57;8.33;;;-4.60;98.80;;;;;;4998389;28;20347;-72
2024/01/10 04:30:02;;;;;;;16.60;7.43;;;-4.50;98.50;;;;;;4991293;28;20554;-71
2024/01/10 04:32:28;;;;;;;22.57;8.40;;;-4.50;98.30;;;;;;4991916;28;20678;-71
2024/01/10 04:34:53;;;;;;;26.33;8.43;;;-4.50;98.40;;;;;;4994313;28;20192;-70
2024/01/10 04:37:19;;;;;;;22.57;8.83;;;-4.50;98.10;;;;;;4994354;28;20299;-70
2024/01/10 04:39:44;;;;;;;21.13;8.00;;;-4.60;97.80;;;;;;5007553;28;20191;-71
2024/01/10 04:42:13;;;;;;;29.60;8.40;;;-4.60;97.90;;;;;;5005769;28;20187;-71
2024/01/10 04:44:39;;;;;;;21.40;8.87;;;-4.70;98.00;;;;;;4991574;28;20195;-71
2024/01/10 04:47:07;;;;;;;16.77;8.00;;;-4.80;98.30;;;;;;4989471;28;20437;-71
2024/01/10 04:49:32;;;;;;;23.20;8.37;;;-4.70;98.40;;;;;;5002928;28;20632;-71
2024/01/10 04:51:58;;;;;;;24.83;9.57;;;-4.70;98.20;;;;;;5001337;28;20510;-71
2024/01/10 04:54:24;;;;;;;18.87;8.30;;;-4.80;98.50;;;;;;4997931;28;20195;-71
2024/01/10 04:56:49;;;;;;;21.70;8.93;;;-4.70;98.50;;;;;;4994248;28;20196;-72
2024/01/10 04:59:15;;;;;;;22.03;8.40;;;-4.70;98.20;;;;;;5007830;28;20191;-70
2024/01/10 05:01:41;;;;;;;18.73;8.47;;;-4.80;98.60;;;;;;5013682;28;20183;-71
2024/01/10 05:04:06;;;;;;;20.83;9.13;;;-4.90;98.50;;;;;;4999039;28;20221;-71
2024/01/10 05:06:32;;;;;;;22.23;9.87;;;-4.90;98.30;;;;;;5004736;28;20306;-71
2024/01/10 05:08:58;;;;;;;24.93;9.87;;;-4.90;98.60;;;;;;5008452;28;20241;-71
2024/01/10 05:11:25;;;;;;;17.73;8.63;;;-4.80;98.70;;;;;;5003493;28;20551;-71
2024/01/10 05:13:51;;;;;;;21.10;9.10;;;-4.80;98.70;;;;;;4986736;28;20430;-70
2024/01/10 05:16:17;;;;;;;20.67;9.60;;;-4.80;98.80;;;;;;4992178;28;20477;-68
2024/01/10 05:18:42;;;;;;;25.20;10.30;;;-4.80;98.80;;;;;;4989181;28;20450;-68
2024/01/10 05:21:08;;;;;;;27.17;9.20;;;-4.90;98.90;;;;;;4998480;28;20205;-71
2024/01/10 05:23:33;;;;;;;21.20;8.43;;;-4.80;99.20;;;;;;4990489;28;20571;-70
2024/01/10 05:25:59;;;;;;;21.93;10.17;;;-4.90;99.00;;;;;;5000482;28;20191;-69
2024/01/10 05:28:24;;;;;;;25.57;10.60;;;-4.90;99.30;;;;;;4996325;28;20584;-68
2024/01/10 05:30:50;;;;;;;22.60;8.50;;;-5.00;99.20;;;;;;4999246;28;20509;-71
2024/01/10 05:33:15;;;;;;;28.07;9.60;;;-5.00;99.30;;;;;;4996986;28;20190;-71
2024/01/10 05:35:41;;;;;;;27.60;9.70;;;-5.00;99.30;;;;;;4997940;28;20233;-71
2024/01/10 05:38:07;;;;;;;21.77;9.70;;;-5.00;99.20;;;;;;5002728;28;20222;-71
2024/01/10 05:40:32;;;;;;;18.70;8.00;;;-5.00;99.50;;;;;;4996517;28;20891;-68
2024/01/10 05:43:01;;;;;;;26.37;10.27;;;-5.00;99.30;;;;;;5012382;28;20190;-68
2024/01/10 05:45:28;;;;;;;25.50;9.27;;;-5.10;99.40;;;;;;4995683;28;20234;-70
2024/01/10 05:47:54;;;;;;;26.87;10.80;;;-5.20;99.40;;;;;;5009199;28;20429;-71
2024/01/10 05:50:19;;;;;;;16.67;7.63;;;-5.20;99.60;;;;;;4994667;28;20451;-68
2024/01/10 05:52:45;;;;;;;25.10;9.20;;;-5.20;99.50;;;;;;5001168;28;21315;-69
2024/01/10 05:55:11;;;;;;;25.40;9.60;;;-5.30;99.70;;;;;;5003384;28;20195;-70
2024/01/10 05:57:37;;;;;;;21.50;9.80;;;-5.30;99.60;;;;;;4993058;28;20477;-70
2024/01/10 06:00:04;;;;;;;27.47;10.50;;;-5.30;99.50;;;;;;5003786;28;20663;-70
2024/01/10 06:02:30;;;;;;;17.87;9.33;;;-5.30;99.70;;;;;;5003789;28;20172;-70
2024/01/10 06:04:56;;;;;;;23.27;10.27;;;-5.40;99.90;;;;;;5002639;28;20446;-71
2024/01/10 06:07:21;;;;;;;31.47;11.97;;;-5.40;99.90;;;;;;5007858;28;20543;-71
2024/01/10 06:09:47;;;;;;;37.93;10.97;;;-5.50;99.90;;;;;;5003369;28;20294;-71
2024/01/10 06:12:13;;;;;;;23.57;9.90;;;-5.50;99.90;;;;;;5001331;28;20321;-70
2024/01/10 06:14:38;;;;;;;23.60;10.23;;;-5.50;99.90;;;;;;5012305;28;20826;-71
2024/01/10 06:17:04;;;;;;;24.00;10.13;;;-5.60;99.90;;;;;;4987964;28;20191;-71
2024/01/10 06:19:33;;;;;;;29.63;10.30;;;-5.50;99.90;;;;;;4992301;28;20199;-70
2024/01/10 06:21:59;;;;;;;17.33;8.67;;;-5.60;99.90;;;;;;5004356;28;20195;-71
2024/01/10 06:24:24;;;;;;;20.60;10.50;;;-5.60;99.90;;;;;;4992689;28;20434;-70
2024/01/10 06:26:50;;;;;;;27.73;11.73;;;-5.60;99.90;;;;;;5002805;28;20800;-70
2024/01/10 06:29:16;;;;;;;24.37;9.87;;;-5.70;99.90;;;;;;5012373;28;20202;-71
2024/01/10 06:31:41;;;;;;;25.47;9.70;;;-5.70;99.90;;;;;;4996530;28;20192;-70
2024/01/10 06:34:08;;;;;;;19.27;8.83;;;-5.70;99.90;;;;;;4987335;28;20199;-69
2024/01/10 06:36:33;;;;;;;20.20;9.67;;;-5.80;99.90;;;;;;4999621;28;20187;-68
2024/01/10 06:38:59;;;;;;;29.30;10.93;;;-5.80;99.90;;;;;;5006921;28;20461;-68
2024/01/10 06:41:24;;;;;;;20.93;10.03;;;-5.90;99.90;;;;;;4998460;28;20191;-69
2024/01/10 06:43:53;;;;;;;28.83;11.40;;;-5.90;99.90;;;;;;4997528;28;20668;-68
2024/01/10 06:46:20;;;;;;;26.27;10.20;;;-5.90;99.90;;;;;;4990355;28;20574;-71
2024/01/10 06:48:45;;;;;;;62.00;16.70;;;-5.90;99.90;;;;;;4996832;28;20470;-71
2024/01/10 06:51:14;;;;;;;32.10;10.53;;;-5.90;99.90;;;;;;5008731;28;21015;-68
2024/01/10 06:53:40;;;;;;;26.07;12.10;;;-6.00;99.90;;;;;;4992235;28;20188;-68
2024/01/10 06:56:07;;;;;;;31.93;12.67;;;-6.00;99.90;;;;;;4991648;28;20432;-69
2024/01/10 06:58:32;;;;;;;27.80;11.13;;;-6.00;99.90;;;;;;5000200;28;20641;-68
2024/01/10 07:01:00;;;;;;;43.13;13.93;;;-6.10;99.90;;;;;;5008508;28;20473;-71
2024/01/10 07:03:26;;;;;;;35.73;13.10;;;-6.10;99.90;;;;;;4994162;28;20270;-71
2024/01/10 07:05:51;;;;;;;35.37;13.10;;;-6.20;99.90;;;;;;5011819;28;20513;-70
2024/01/10 07:08:16;;;;;;;37.33;13.10;;;-6.20;99.90;;;;;;5010916;28;20225;-70
2024/01/10 07:10:42;;;;;;;41.70;15.63;;;-6.30;99.90;;;;;;5011352;28;20726;-69
2024/01/10 07:13:08;;;;;;;42.37;15.53;;;-6.20;99.90;;;;;;4984366;28;20303;-68
2024/01/10 07:15:33;;;;;;;23.83;10.20;;;-6.20;99.90;;;;;;5008424;28;20210;-71
2024/01/10 07:17:59;;;;;;;28.47;10.93;;;-6.30;99.90;;;;;;4992247;28;20667;-70
2024/01/10 07:20:24;;;;;;;28.47;11.33;;;-6.30;99.90;;;;;;4982330;28;20179;-71
2024/01/10 07:22:51;;;;;;;29.87;11.97;;;-6.20;99.90;;;;;;5004430;28;20915;-71
2024/01/10 07:25:17;;;;;;;40.20;15.10;;;-6.30;99.90;;;;;;4995007;28;20211;-69
2024/01/10 07:27:45;;;;;;;33.13;12.90;;;-6.20;99.90;;;;;;4987109;28;20466;-69
2024/01/10 07:30:13;;;;;;;44.70;15.27;;;-6.20;99.90;;;;;;5007766;28;20203;-71
2024/01/10 07:32:46;;;;;;;40.33;15.37;;;-6.20;99.90;;;;;;4990932;28;20430;-71
2024/01/10 07:35:13;;;;;;;29.40;13.00;;;-6.20;99.90;;;;;;4994908;28;20509;-70
2024/01/10 07:37:40;;;;;;;30.70;12.53;;;-6.10;99.90;;;;;;5006086;28;20465;-70
2024/01/10 07:40:06;;;;;;;26.10;11.27;;;-6.10;99.90;;;;;;5002738;28;20786;-70
2024/01/10 07:42:35;;;;;;;28.70;11.60;;;-6.00;99.90;;;;;;4992638;28;20431;-70
2024/01/10 07:45:04;;;;;;;25.20;10.37;;;-6.00;99.90;;;;;;4984557;28;20477;-71
2024/01/10 07:47:31;;;;;;;29.73;11.50;;;-6.10;99.90;;;;;;4997291;28;20839;-71
2024/01/10 07:49:57;;;;;;;20.97;8.63;;;-6.10;99.90;;;;;;4993167;28;20549;-71
2024/01/10 07:52:22;;;;;;;23.70;10.57;;;-6.00;99.90;;;;;;4995748;28;20410;-71
2024/01/10 07:54:48;;;;;;;25.30;9.83;;;-6.10;99.90;;;;;;5006150;28;20520;-71
2024/01/10 07:57:13;;;;;;;29.47;10.47;;;-6.00;99.90;;;;;;4983354;28;20192;-71
2024/01/10 07:59:39;;;;;;;19.43;8.67;;;-6.00;99.90;;;;;;4998071;28;20267;-70
2024/01/10 08:02:05;;;;;;;23.90;10.13;;;-6.00;99.90;;;;;;4999399;28;20225;-71
2024/01/10 08:04:30;;;;;;;22.00;9.77;;;-5.90;99.90;;;;;;5000617;28;20183;-70
2024/01/10 08:06:56;;;;;;;30.37;11.53;;;-5.80;99.90;;;;;;4997610;28;20282;-70
2024/01/10 08:09:23;;;;;;;25.60;10.00;;;-5.60;99.90;;;;;;5003250;28;20818;-71
2024/01/10 08:11:49;;;;;;;25.10;10.67;;;-5.80;99.90;;;;;;4994895;28;20430;-71
2024/01/10 08:14:15;;;;;;;24.80;10.80;;;-5.80;99.90;;;;;;5011094;28;20425;-71
2024/01/10 08:16:41;;;;;;;32.90;12.90;;;-5.40;99.90;;;;;;4990645;28;20172;-71
2024/01/10 08:19:07;;;;;;;38.00;13.03;;;-5.60;99.90;;;;;;5006918;28;20421;-68
2024/01/10 08:21:33;;;;;;;27.03;12.30;;;-5.60;99.90;;;;;;5000652;28;20197;-68
2024/01/10 08:23:58;;;;;;;38.63;16.93;;;-5.50;99.90;;;;;;5007964;28;20847;-69
2024/01/10 08:26:24;;;;;;;35.77;14.60;;;-5.40;99.90;;;;;;5012961;28;20591;-70
2024/01/10 08:28:49;;;;;;;38.87;15.10;;;-5.10;99.90;;;;;;4997176;28;20216;-71
2024/01/10 08:31:18;;;;;;;30.57;12.90;;;-5.20;99.90;;;;;;4989477;28;20676;-68
2024/01/10 08:33:44;;;;;;;32.83;12.00;;;-5.20;99.90;;;;;;4975136;28;20222;-68
2024/01/10 08:36:10;;;;;;;28.90;11.13;;;-5.20;99.90;;;;;;5002942;28;20473;-71
2024/01/10 08:38:36;;;;;;;28.10;11.70;;;-5.30;99.90;;;;;;5002708;28;20469;-71
2024/01/10 08:41:03;;;;;;;32.50;13.30;;;-5.20;99.90;;;;;;5010893;28;20245;-71
2024/01/10 08:43:28;;;;;;;33.07;11.90;;;-5.20;99.90;;;;;;4992462;28;20258;-71
2024/01/10 08:45:54;;;;;;;22.90;11.07;;;-5.20;99.90;;;;;;4971622;28;20423;-68
2024/01/10 08:48:19;;;;;;;26.40;12.67;;;-5.10;99.90;;;;;;5003983;28;20222;-68
2024/01/10 08:50:45;;;;;;;30.90;11.93;;;-5.00;99.90;;;;;;5002755;28;20217;-68
2024/01/10 08:53:11;;;;;;;28.33;11.80;;;-4.90;99.90;;;;;;4989837;28;20612;-69
2024/01/10 08:55:39;;;;;;;27.63;11.67;;;-4.80;99.90;;;;;;5005427;28;20663;-71
2024/01/10 08:58:05;;;;;;;35.47;10.80;;;-4.70;99.90;;;;;;5009155;28;20187;-71
2024/01/10 09:00:31;;;;;;;26.73;10.00;;;-4.60;99.90;;;;;;4999937;28;20533;-71
2024/01/10 09:02:56;;;;;;;27.47;10.87;;;-4.50;99.90;;;;;;4993209;28;20214;-71
2024/01/10 09:05:22;;;;;;;36.77;11.73;;;-4.40;99.90;;;;;;5011940;28;20429;-70
2024/01/10 09:07:49;;;;;;;30.00;11.80;;;-4.50;99.80;;;;;;5004055;28;20182;-69
2024/01/10 09:10:14;;;;;;;26.37;11.63;;;-4.30;99.90;;;;;;4977184;28;20556;-71
2024/01/10 09:12:43;;;;;;;28.87;12.10;;;-4.10;99.60;;;;;;4994902;28;20422;-71
2024/01/10 09:15:12;;;;;;;29.10;11.53;;;-4.10;99.30;;;;;;4999623;28;20186;-71
2024/01/10 09:17:38;;;;;;;25.20;11.73;;;-3.90;99.00;;;;;;4988687;28;20777;-71
2024/01/10 09:20:04;;;;;;;25.37;12.23;;;-3.90;98.60;;;;;;4995533;28;20440;-71
2024/01/10 09:22:30;;;;;;;28.20;11.50;;;-3.70;98.50;;;;;;4994890;28;20611;-72
2024/01/10 09:24:55;;;;;;;29.27;11.43;;;-3.70;98.20;;;;;;5011776;28;20421;-72
2024/01/10 09:27:22;;;;;;;27.23;11.03;;;-3.60;98.30;;;;;;4995968;28;20199;-71
2024/01/10 09:29:48;;;;;;;26.83;11.23;;;-3.50;98.10;;;;;;5005312;28;20218;-71
2024/01/10 09:32:13;;;;;;;29.40;10.97;;;-3.60;98.30;;;;;;5011046;28;20418;-71
2024/01/10 09:34:39;;;;;;;30.80;11.77;;;-3.50;98.50;;;;;;5000366;28;20275;-71
2024/01/10 09:37:05;;;;;;;28.17;12.67;;;-3.40;98.20;;;;;;4974001;28;20191;-72
2024/01/10 09:39:30;;;;;;;29.10;12.20;;;-3.50;98.20;;;;;;5003550;28;20180;-69
2024/01/10 09:41:57;;;;;;;28.53;13.37;;;-3.40;98.30;;;;;;4999255;28;20480;-68
2024/01/10 09:44:23;;;;;;;25.93;11.20;;;-3.50;97.80;;;;;;4992043;28;20185;-72
2024/01/10 09:46:51;;;;;;;28.17;10.73;;;-3.30;98.30;;;;;;5008258;28;20517;-72
2024/01/10 09:49:17;;;;;;;23.53;10.10;;;-3.10;97.80;;;;;;4991321;28;20223;-72
2024/01/10 09:51:47;;;;;;;30.80;11.50;;;-3.00;97.60;;;;;;5006688;28;20430;-72
2024/01/10 09:54:15;;;;;;;38.67;12.40;;;-2.80;97.90;;;;;;5006970;28;20429;-72
2024/01/10 09:56:41;;;;;;;24.13;12.23;;;-2.70;97.50;;;;;;5000358;28;20509;-72
2024/01/10 09:59:10;;;;;;;27.27;11.17;;;-2.70;97.30;;;;;;5007430;28;20426;-72
2024/01/10 10:01:39;;;;;;;29.60;10.87;;;-2.80;97.30;;;;;;5009712;28;20430;-72
2024/01/10 10:04:07;;;;;;;29.17;10.60;;;-2.60;97.30;;;;;;4993414;28;20934;-72
2024/01/10 10:06:33;;;;;;;28.03;10.80;;;-2.60;97.40;;;;;;5003401;28;20433;-72
2024/01/10 10:08:59;;;;;;;30.20;10.33;;;-2.70;97.80;;;;;;4996175;28;20490;-72
2024/01/10 10:11:25;;;;;;;27.00;10.63;;;-2.50;97.90;;;;;;5001562;28;20466;-72
2024/01/10 10:13:51;;;;;;;30.00;10.17;;;-2.50;97.80;;;;;;4990582;28;20210;-72
2024/01/10 10:16:23;;;;;;;23.13;9.67;;;-2.30;97.70;;;;;;4995676;28;20212;-72
2024/01/10 10:18:50;;;;;;;22.67;10.13;;;-2.40;97.20;;;;;;4990528;28;20187;-72
2024/01/10 10:21:16;;;;;;;20.97;9.83;;;-2.40;97.40;;;;;;4976345;28;20460;-72
2024/01/10 10:23:56;;;;;;;21.70;10.30;;;-2.30;97.70;;;;;;5005469;28;20969;-72
2024/01/10 10:26:22;;;;;;;27.03;11.00;;;-2.20;97.60;;;;;;5002905;28;20530;-73
2024/01/10 10:28:48;;;;;;;26.00;10.93;;;-2.20;97.70;;;;;;4998849;28;20553;-72
2024/01/10 10:31:15;;;;;;;29.07;12.10;;;-2.10;97.70;;;;;;5000041;28;20425;-73
2024/01/10 10:33:40;;;;;;;32.50;11.43;;;-1.90;97.70;;;;;;5000419;28;20422;-73
2024/01/10 10:36:06;;;;;;;22.30;10.23;;;-1.70;97.10;;;;;;4997923;28;20428;-70
2024/01/10 10:38:32;;;;;;;23.00;11.87;;;-1.70;96.90;;;;;;4998632;28;20261;-70
2024/01/10 10:40:59;;;;;;;30.37;10.10;;;-1.50;96.40;;;;;;4997677;28;20568;-73
2024/01/10 10:43:25;;;;;;;17.60;9.37;;;-1.40;96.10;;;;;;5004595;28;20632;-73
2024/01/10 10:45:51;;;;;;;21.07;10.20;;;-1.20;96.00;;;;;;4987328;28;20442;-73
2024/01/10 10:48:20;;;;;;;33.93;12.40;;;-1.00;95.80;;;;;;4994136;28;20439;-73
2024/01/10 10:51:03;;;;;;;39.40;11.17;;;-1.00;95.30;;;;;;4997152;28;20575;-73
2024/01/10 10:53:29;;;;;;;25.87;10.00;;;-1.10;95.70;;;;;;5000720;28;20441;-73
2024/01/10 10:55:58;;;;;;;22.33;10.30;;;-1.00;95.40;;;;;;5006997;28;20422;-73
2024/01/10 10:58:23;;;;;;;26.60;9.17;;;-0.70;96.30;;;;;;4996567;28;20908;-73
2024/01/10 11:00:50;;;;;;;26.67;10.73;;;-0.60;95.20;;;;;;4991831;28;20415;-73
2024/01/10 11:03:17;;;;;;;32.27;12.00;;;-0.40;94.80;;;;;;4990327;28;20262;-73
2024/01/10 11:05:44;;;;;;;28.73;11.60;;;-0.20;94.60;;;;;;5000731;28;20562;-70
2024/01/10 11:08:14;;;;;;;24.03;9.83;;;-0.30;94.80;;;;;;4992000;28;20431;-70
2024/01/10 11:10:41;;;;;;;26.53;9.50;;;-0.40;94.40;;;;;;4998776;28;20773;-71
2024/01/10 11:13:48;;;;;;;24.77;11.07;;;-0.40;95.00;;;;;;4999680;28;20430;-70
2024/01/10 11:16:25;;;;;;;28.33;12.40;;;-0.40;95.50;;;;;;4991456;28;20434;-74
2024/01/10 11:19:21;;;;;;;26.20;10.50;;;-0.20;95.00;;;;;;5004319;28;20453;-74
2024/01/10 11:22:05;;;;;;;26.53;11.33;;;0.10;95.00;;;;;;4993248;28;20450;-74
2024/01/10 11:24:32;;;;;;;31.47;11.47;;;0.20;94.60;;;;;;4993458;28;20428;-74
2024/01/10 11:27:10;;;;;;;28.17;11.10;;;0.40;94.60;;;;;;5010339;28;20472;-74
2024/01/10 11:29:38;;;;;;;34.17;12.17;;;0.50;94.20;;;;;;4996607;28;20608;-74
2024/01/10 11:32:05;;;;;;;20.80;10.37;;;0.60;94.30;;;;;;4997169;28;20442;-74
2024/01/10 11:34:31;;;;;;;34.27;14.00;;;0.30;94.40;;;;;;5003826;28;20433;-74
2024/01/10 11:37:12;;;;;;;19.23;9.80;;;0.00;94.60;;;;;;4997784;28;20430;-74
2024/01/10 11:39:43;;;;;;;29.87;12.43;;;0.30;95.20;;;;;;5008779;28;20245;-74
2024/01/10 11:42:12;;;;;;;26.87;11.27;;;0.40;95.10;;;;;;5004446;28;20457;-74
2024/01/10 11:44:51;;;;;;;23.10;10.00;;;0.40;95.10;;;;;;4980939;28;20448;-74
2024/01/10 11:47:18;;;;;;;22.50;10.77;;;0.40;94.60;;;;;;5002730;28;20445;-74
2024/01/10 11:49:54;;;;;;;23.30;11.03;;;0.40;95.10;;;;;;4993032;28;20490;-70
2024/01/10 11:52:22;;;;;;;24.93;11.23;;;0.60;94.70;;;;;;5005704;28;20416;-70
2024/01/10 11:54:48;;;;;;;22.50;10.50;;;0.60;95.00;;;;;;5002497;28;20422;-74
2024/01/10 11:57:22;;;;;;;24.83;10.87;;;0.80;94.80;;;;;;5000477;28;20417;-74
2024/01/10 11:59:50;;;;;;;24.43;11.10;;;0.90;94.40;;;;;;4989074;28;20226;-74
2024/01/10 12:02:17;;;;;;;27.40;10.00;;;0.70;94.30;;;;;;5003600;28;20418;-74
2024/01/10 12:04:44;;;;;;;26.23;9.90;;;0.60;94.80;;;;;;4989139;28;20810;-74
2024/01/10 12:07:11;;;;;;;25.27;11.63;;;0.70;95.20;;;;;;5002749;28;20430;-74
2024/01/10 12:09:36;;;;;;;28.67;10.80;;;0.70;94.60;;;;;;4994575;28;20471;-74
2024/01/10 12:12:03;;;;;;;30.40;11.93;;;0.50;94.80;;;;;;5004287;28;20433;-74
2024/01/10 12:14:29;;;;;;;24.27;8.57;;;0.50;95.10;;;;;;5002525;28;20214;-74
2024/01/10 12:16:55;;;;;;;22.17;10.50;;;0.50;95.30;;;;;;5006142;28;20505;-75
2024/01/10 12:19:21;;;;;;;26.53;10.53;;;0.30;95.90;;;;;;4998482;28;20426;-74
2024/01/10 12:21:48;;;;;;;27.20;11.90;;;0.30;96.00;;;;;;4994430;28;20630;-74
2024/01/10 12:24:13;;;;;;;22.63;11.07;;;0.40;96.00;;;;;;4987689;28;20629;-75
2024/01/10 12:26:45;;;;;;;18.50;9.70;;;0.50;95.80;;;;;;5010432;28;20429;-75
2024/01/10 12:29:11;;;;;;;29.23;11.73;;;0.40;96.10;;;;;;4986484;28;20338;-75